Time;durP1;ratioP1;P1;durP2;ratioP2;P2;SDS_P1;SDS_P2;PMS_P1;PMS_P2;Temp;Humidity;BMP_temperature;BMP_pressure;BME280_temperature;BME280_humidity;BME280_pressure;Samples;Min_cycle;Max_cycle;Signal;HPM_P1;HPM_P2
2023/05/21 00:01:58;;;;;;;9.38;6.05;;;14.90;99.90;;;;;;5210704;28;20475;-67
2023/05/21 00:04:32;;;;;;;8.73;6.60;;;14.90;99.90;;;;;;5167156;28;20499;-68
2023/05/21 00:07:07;;;;;;;7.35;5.68;;;14.90;99.90;;;;;;5221630;28;20025;-65
2023/05/21 00:09:39;;;;;;;9.70;6.38;;;14.90;99.90;;;;;;5210865;28;20089;-70
2023/05/21 00:12:12;;;;;;;9.80;6.35;;;14.90;99.90;;;;;;5201926;28;20025;-69
2023/05/21 00:14:43;;;;;;;10.77;6.93;;;14.90;99.90;;;;;;5182003;28;20044;-66
2023/05/21 00:17:17;;;;;;;8.52;6.45;;;14.90;99.90;;;;;;5180361;28;20036;-66
2023/05/21 00:19:49;;;;;;;9.15;5.88;;;14.90;99.90;;;;;;5183143;28;20410;-66
2023/05/21 00:22:23;;;;;;;11.18;6.55;;;14.90;99.90;;;;;;5198408;28;20036;-66
2023/05/21 00:24:59;;;;;;;8.50;6.20;;;14.80;99.90;;;;;;5193219;28;20036;-67
2023/05/21 00:27:33;;;;;;;8.63;5.63;;;14.70;99.90;;;;;;5199379;28;20048;-67
2023/05/21 00:30:05;;;;;;;8.73;5.80;;;14.70;99.90;;;;;;5197818;28;20029;-67
2023/05/21 00:32:37;;;;;;;9.73;5.97;;;14.60;99.90;;;;;;5194890;28;20039;-67
2023/05/21 00:35:08;;;;;;;8.23;6.53;;;14.50;99.90;;;;;;5195716;28;20356;-67
2023/05/21 00:37:39;;;;;;;8.88;6.68;;;14.50;99.90;;;;;;5177031;28;20055;-68
2023/05/21 00:40:15;;;;;;;9.40;6.28;;;14.50;99.90;;;;;;5210224;28;20040;-66
2023/05/21 00:42:46;;;;;;;8.57;6.30;;;14.40;99.90;;;;;;5214725;28;20029;-67
2023/05/21 00:45:22;;;;;;;9.57;6.78;;;14.30;99.90;;;;;;5214321;28;20037;-67
2023/05/21 00:47:56;;;;;;;8.75;6.30;;;14.30;99.90;;;;;;5197205;28;20027;-66
2023/05/21 00:50:29;;;;;;;8.40;6.53;;;14.30;99.90;;;;;;5214311;28;20029;-67
2023/05/21 00:53:03;;;;;;;9.02;6.15;;;14.20;99.90;;;;;;5181765;28;20013;-67
2023/05/21 00:55:37;;;;;;;8.68;6.30;;;14.20;99.90;;;;;;5210478;28;20033;-67
2023/05/21 00:58:10;;;;;;;8.02;6.32;;;14.10;99.90;;;;;;5189541;28;20050;-66
2023/05/21 01:00:44;;;;;;;9.15;6.80;;;14.00;99.90;;;;;;5199600;28;20032;-67
2023/05/21 01:03:16;;;;;;;9.63;6.72;;;14.00;99.90;;;;;;5270977;22;20056;-66
2023/05/21 01:05:53;;;;;;;10.18;6.53;;;14.00;99.90;;;;;;5225839;28;20052;-67
2023/05/21 01:08:28;;;;;;;8.25;6.03;;;14.00;99.90;;;;;;5216016;28;20077;-68
2023/05/21 01:11:04;;;;;;;9.10;6.75;;;14.00;99.90;;;;;;5235265;28;20331;-67
2023/05/21 01:13:41;;;;;;;9.90;6.97;;;14.00;99.90;;;;;;5218644;28;20040;-68
2023/05/21 01:16:16;;;;;;;9.73;6.88;;;13.90;99.90;;;;;;5234147;28;20040;-65
2023/05/21 01:18:52;;;;;;;9.40;6.47;;;13.90;99.90;;;;;;5234580;28;20047;-69
2023/05/21 01:21:34;;;;;;;7.65;5.75;;;13.90;99.90;;;;;;5234628;28;20047;-67
2023/05/21 01:24:06;;;;;;;8.73;6.22;;;13.80;99.90;;;;;;5217570;28;20036;-68
2023/05/21 01:26:41;;;;;;;8.18;6.25;;;13.80;99.90;;;;;;5199823;28;20645;-66
2023/05/21 01:29:13;;;;;;;9.65;6.35;;;13.70;99.90;;;;;;5200980;28;20042;-67
2023/05/21 01:31:58;;;;;;;7.35;6.07;;;13.70;99.90;;;;;;5215414;28;20058;-67
2023/05/21 01:34:40;;;;;;;8.20;5.90;;;13.70;99.90;;;;;;5215710;28;20021;-66
2023/05/21 01:37:24;;;;;;;8.20;6.28;;;13.70;99.90;;;;;;5196477;28;20035;-68
2023/05/21 01:40:04;;;;;;;9.70;5.53;;;13.70;99.90;;;;;;5223131;28;20700;-68
2023/05/21 01:42:39;;;;;;;8.55;6.35;;;13.70;99.90;;;;;;5235360;28;20038;-65
2023/05/21 01:45:15;;;;;;;9.50;7.22;;;13.70;99.90;;;;;;5234654;28;20054;-66
2023/05/21 01:47:57;;;;;;;8.27;5.50;;;13.70;99.90;;;;;;5218971;28;20036;-68
2023/05/21 01:50:32;;;;;;;7.93;6.43;;;13.60;99.90;;;;;;5225752;28;20040;-66
2023/05/21 01:53:06;;;;;;;8.13;6.40;;;13.60;99.90;;;;;;5232216;28;20033;-65
2023/05/21 01:55:47;;;;;;;10.38;6.25;;;13.50;99.90;;;;;;5230043;28;20020;-64
2023/05/21 01:58:21;;;;;;;10.73;7.50;;;13.50;99.90;;;;;;5237906;28;20050;-66
2023/05/21 02:00:53;;;;;;;8.77;6.72;;;13.50;99.90;;;;;;5218570;28;20036;-69
2023/05/21 02:03:26;;;;;;;8.60;6.25;;;13.50;99.90;;;;;;5198475;28;20074;-68
2023/05/21 02:05:59;;;;;;;8.73;6.82;;;13.50;99.90;;;;;;5205482;28;20602;-64
2023/05/21 02:08:32;;;;;;;17.20;7.38;;;13.50;99.90;;;;;;5213190;28;20037;-67
2023/05/21 02:11:04;;;;;;;7.53;5.72;;;13.50;99.90;;;;;;5209430;28;20036;-69
2023/05/21 02:13:41;;;;;;;10.00;6.25;;;13.50;99.90;;;;;;5216486;28;20032;-63
2023/05/21 02:16:15;;;;;;;9.25;7.15;;;13.40;99.90;;;;;;5217186;28;20024;-67
2023/05/21 02:18:52;;;;;;;8.75;6.07;;;13.40;99.90;;;;;;5216130;28;20028;-66
2023/05/21 02:21:23;;;;;;;9.85;7.28;;;13.40;99.90;;;;;;5199971;28;20029;-67
2023/05/21 02:23:56;;;;;;;9.95;7.57;;;13.40;99.90;;;;;;5237468;28;20194;-69
2023/05/21 02:26:27;;;;;;;11.48;7.00;;;13.50;99.90;;;;;;5219481;28;20039;-66
2023/05/21 02:29:02;;;;;;;9.20;7.07;;;13.50;99.90;;;;;;5216636;28;20079;-65
2023/05/21 02:31:35;;;;;;;;;;;13.40;99.90;;;;;;5222103;28;20039;-66
2023/05/21 02:34:09;;;;;;;8.90;6.35;;;13.40;99.90;;;;;;5224191;28;20588;-66
2023/05/21 02:36:47;;;;;;;9.20;6.65;;;13.30;99.90;;;;;;5201137;28;20036;-66
2023/05/21 02:39:22;;;;;;;8.63;7.03;;;13.20;99.90;;;;;;5197759;28;20040;-67
2023/05/21 02:41:55;;;;;;;8.77;6.57;;;13.10;99.90;;;;;;5212415;28;20039;-67
2023/05/21 02:44:27;;;;;;;9.05;5.93;;;12.90;99.90;;;;;;5215979;28;20040;-67
2023/05/21 02:46:58;;;;;;;8.38;7.13;;;12.80;99.90;;;;;;5233417;28;20020;-65
2023/05/21 02:49:29;;;;;;;9.70;6.80;;;12.70;99.90;;;;;;5230471;28;20044;-67
2023/05/21 02:52:03;;;;;;;8.27;5.72;;;12.70;99.90;;;;;;5210344;28;20043;-67
2023/05/21 02:54:36;;;;;;;7.57;6.10;;;12.60;99.90;;;;;;5212088;28;20028;-67
2023/05/21 02:57:10;;;;;;;9.50;6.82;;;12.60;99.90;;;;;;5227163;28;20038;-65
2023/05/21 02:59:47;;;;;;;10.10;6.78;;;12.60;99.90;;;;;;5199714;28;20324;-66
2023/05/21 03:02:22;;;;;;;8.48;6.30;;;12.50;99.90;;;;;;5215798;28;20047;-67
2023/05/21 03:04:57;;;;;;;8.23;5.82;;;12.60;99.90;;;;;;5188980;28;20470;-67
2023/05/21 03:07:31;;;;;;;7.90;5.50;;;12.70;99.90;;;;;;5200491;28;20044;-66
2023/05/21 03:10:03;;;;;;;8.77;6.15;;;12.60;99.90;;;;;;5236713;28;20316;-67
2023/05/21 03:12:37;;;;;;;9.43;6.80;;;12.50;99.90;;;;;;5206750;28;20037;-67
2023/05/21 03:15:14;;;;;;;9.95;6.53;;;12.50;99.90;;;;;;5233980;28;20043;-67
2023/05/21 03:17:47;;;;;;;10.02;6.90;;;12.50;99.90;;;;;;5199327;28;20037;-66
2023/05/21 03:20:18;;;;;;;10.80;6.15;;;12.50;99.90;;;;;;5235060;28;20036;-67
2023/05/21 03:22:53;;;;;;;11.77;5.78;;;12.50;99.90;;;;;;5199338;28;20029;-65
2023/05/21 03:25:27;;;;;;;7.90;6.70;;;12.50;99.90;;;;;;5199882;28;20040;-67
2023/05/21 03:28:00;;;;;;;9.05;6.35;;;12.60;99.90;;;;;;5198145;28;20328;-67
2023/05/21 03:30:35;;;;;;;10.02;7.00;;;12.70;99.90;;;;;;5229091;28;20038;-67
2023/05/21 03:33:06;;;;;;;10.05;6.80;;;12.70;99.90;;;;;;5216573;28;20332;-66
2023/05/21 03:35:37;;;;;;;9.05;6.15;;;12.80;99.90;;;;;;5252526;28;20032;-67
2023/05/21 03:38:11;;;;;;;7.15;4.97;;;13.00;99.90;;;;;;5236380;28;20445;-69
2023/05/21 03:40:45;;;;;;;11.60;6.70;;;13.10;99.90;;;;;;5232618;28;20115;-66
2023/05/21 03:43:16;;;;;;;;;;;13.10;99.90;;;;;;5196052;28;20028;-65
2023/05/21 03:45:49;;;;;;;8.80;5.63;;;13.20;99.90;;;;;;5231855;28;20376;-66
2023/05/21 03:48:23;;;;;;;8.82;6.07;;;13.30;99.90;;;;;;5197759;28;20050;-67
2023/05/21 03:50:54;;;;;;;8.85;6.38;;;13.50;99.90;;;;;;5214018;28;20041;-67
2023/05/21 03:53:26;;;;;;;7.00;5.97;;;13.60;99.90;;;;;;5214230;28;20040;-67
2023/05/21 03:56:03;;;;;;;7.05;5.20;;;13.70;99.90;;;;;;5214310;28;20037;-66
2023/05/21 03:58:38;;;;;;;7.40;5.30;;;13.80;99.90;;;;;;5228071;28;20035;-68
2023/05/21 04:01:11;;;;;;;7.50;5.95;;;13.90;99.90;;;;;;5231775;28;20611;-68
2023/05/21 04:03:42;;;;;;;7.15;5.82;;;14.10;99.90;;;;;;5236016;28;20055;-67
2023/05/21 04:06:14;;;;;;;7.25;6.30;;;14.30;99.90;;;;;;5228043;28;20252;-68
2023/05/21 04:08:46;;;;;;;8.63;6.15;;;14.40;99.90;;;;;;5202901;28;20056;-67
2023/05/21 04:11:21;;;;;;;7.40;5.53;;;14.70;99.90;;;;;;5248655;28;20031;-68
2023/05/21 04:13:52;;;;;;;6.65;5.22;;;14.90;99.90;;;;;;5227664;28;20040;-66
2023/05/21 04:16:24;;;;;;;7.65;5.03;;;15.10;99.90;;;;;;5230763;28;20029;-66
2023/05/21 04:19:01;;;;;;;8.20;5.95;;;15.30;99.90;;;;;;5214985;28;20268;-68
2023/05/21 04:21:35;;;;;;;9.15;5.82;;;15.50;99.90;;;;;;5215499;28;20040;-69
2023/05/21 04:24:10;;;;;;;;;;;15.60;99.90;;;;;;5215196;28;20039;-67
2023/05/21 04:26:47;;;;;;;7.35;5.88;;;15.70;99.90;;;;;;5216083;28;19908;-68
2023/05/21 04:29:20;;;;;;;7.60;5.78;;;15.90;99.90;;;;;;5197141;28;20146;-68
2023/05/21 04:31:51;;;;;;;7.13;5.75;;;16.20;99.90;;;;;;5243019;28;20035;-68
2023/05/21 04:34:24;;;;;;;7.00;5.32;;;16.30;86.10;;;;;;5253715;28;20027;-68
2023/05/21 04:36:58;;;;;;;8.23;6.18;;;16.50;99.90;;;;;;5218938;28;20050;-69
2023/05/21 04:39:30;;;;;;;7.18;5.90;;;16.70;31.20;;;;;;5219440;28;20245;-67
2023/05/21 04:42:02;;;;;;;6.60;4.88;;;16.90;39.30;;;;;;5217401;28;20035;-66
2023/05/21 04:44:33;;;;;;;11.52;6.43;;;16.90;1.00;;;;;;5218255;28;20098;-68
2023/05/21 04:47:06;;;;;;;6.85;5.72;;;16.90;16.10;;;;;;5235797;28;20040;-68
2023/05/21 04:49:38;;;;;;;8.15;6.00;;;17.30;13.80;;;;;;5219233;28;20048;-69
2023/05/21 04:52:12;;;;;;;9.00;5.53;;;17.40;1.00;;;;;;5235968;28;20028;-68
2023/05/21 04:54:44;;;;;;;;;;;17.70;1.00;;;;;;5218310;28;20038;-66
2023/05/21 04:57:23;;;;;;;9.15;4.82;;;18.10;1.00;;;;;;5216433;28;19909;-67
2023/05/21 04:59:57;;;;;;;8.75;5.53;;;18.40;1.00;;;;;;5209385;28;20025;-67
2023/05/21 05:02:30;;;;;;;8.60;6.00;;;18.50;1.00;;;;;;5229417;28;20040;-69
2023/05/21 05:05:05;;;;;;;5.53;4.65;;;18.70;1.00;;;;;;5196409;28;20056;-68
2023/05/21 05:07:38;;;;;;;6.47;4.80;;;19.10;1.00;;;;;;5184965;28;20301;-69
2023/05/21 05:10:12;;;;;;;7.68;5.53;;;19.10;1.00;;;;;;5233452;28;20460;-67
2023/05/21 05:12:48;;;;;;;6.53;5.40;;;19.00;1.00;;;;;;5200441;28;20029;-68
2023/05/21 05:15:19;;;;;;;6.75;5.47;;;19.00;1.00;;;;;;5213586;28;20558;-67
2023/05/21 05:17:51;;;;;;;8.00;5.60;;;19.10;1.00;;;;;;5228429;28;20031;-65
2023/05/21 05:20:22;;;;;;;8.18;5.47;;;19.00;1.00;;;;;;5236791;28;20240;-67
2023/05/21 05:22:54;;;;;;;8.40;5.75;;;18.90;1.00;;;;;;5234883;28;20066;-67
2023/05/21 05:25:26;;;;;;;8.35;5.53;;;19.00;1.00;;;;;;5218023;28;20332;-68
2023/05/21 05:27:58;;;;;;;6.57;4.72;;;19.30;1.00;;;;;;5216358;28;20272;-66
2023/05/21 05:30:32;;;;;;;6.90;5.38;;;19.50;1.00;;;;;;5232811;28;20035;-69
2023/05/21 05:33:03;;;;;;;7.47;5.57;;;19.80;1.00;;;;;;5230939;28;20033;-68
2023/05/21 05:35:35;;;;;;;8.20;5.20;;;19.60;1.00;;;;;;5204208;28;20213;-67
2023/05/21 05:38:07;;;;;;;8.35;4.97;;;19.90;1.00;;;;;;5230628;28;20298;-67
2023/05/21 05:40:41;;;;;;;5.18;4.60;;;20.20;1.00;;;;;;5233244;28;20130;-68
2023/05/21 05:43:13;;;;;;;6.40;5.15;;;20.60;1.00;;;;;;5216744;28;20025;-68
2023/05/21 05:45:46;;;;;;;8.30;4.95;;;20.90;1.00;;;;;;5212068;28;20586;-66
2023/05/21 05:48:20;;;;;;;8.37;5.23;;;21.20;1.00;;;;;;5225089;28;20044;-68
2023/05/21 05:50:55;;;;;;;8.48;5.47;;;21.50;1.00;;;;;;5253532;28;20380;-66
2023/05/21 05:53:31;;;;;;;8.98;5.22;;;21.80;1.00;;;;;;5252153;28;20342;-66
2023/05/21 05:56:02;;;;;;;5.28;4.65;;;22.10;1.00;;;;;;5254034;28;20016;-66
2023/05/21 05:58:34;;;;;;;9.18;5.22;;;22.40;1.00;;;;;;5218809;28;20422;-67
2023/05/21 06:01:07;;;;;;;6.00;4.72;;;22.50;1.00;;;;;;5232256;28;20016;-68
2023/05/21 06:03:38;;;;;;;6.97;4.80;;;22.50;13.20;;;;;;5195319;28;20067;-65
2023/05/21 06:06:12;;;;;;;8.57;5.57;;;22.60;26.00;;;;;;5202327;28;20048;-68
2023/05/21 06:08:43;;;;;;;6.40;4.57;;;22.60;25.60;;;;;;5206305;28;20048;-67
2023/05/21 06:11:16;;;;;;;6.78;5.20;;;22.70;32.90;;;;;;5229831;28;20301;-67
2023/05/21 06:13:47;;;;;;;7.20;4.95;;;22.80;35.40;;;;;;5244334;28;20043;-67
2023/05/21 06:16:21;;;;;;;8.27;4.18;;;22.90;32.60;;;;;;5213716;28;20039;-69
2023/05/21 06:18:52;;;;;;;5.93;4.57;;;22.90;35.40;;;;;;5212944;28;20379;-67
2023/05/21 06:21:25;;;;;;;6.18;4.40;;;23.20;27.40;;;;;;5234081;28;20038;-67
2023/05/21 06:23:56;;;;;;;6.85;5.18;;;23.60;32.60;;;;;;5253900;28;20209;-68
2023/05/21 06:26:27;;;;;;;8.38;4.95;;;23.30;31.90;;;;;;5253345;28;20133;-68
2023/05/21 06:28:59;;;;;;;5.72;4.47;;;23.30;21.30;;;;;;5234027;28;20196;-66
2023/05/21 06:31:33;;;;;;;8.07;4.68;;;23.60;18.40;;;;;;5217452;28;20027;-67
2023/05/21 06:34:04;;;;;;;5.95;4.43;;;23.60;31.50;;;;;;5229647;28;20197;-66
2023/05/21 06:36:36;;;;;;;4.45;3.88;;;23.70;63.40;;;;;;5232869;28;20055;-67
2023/05/21 06:39:07;;;;;;;6.85;4.30;;;24.20;71.00;;;;;;5222945;28;20040;-66
2023/05/21 06:41:41;;;;;;;5.10;4.20;;;24.20;86.60;;;;;;5234957;28;20020;-66
2023/05/21 06:44:17;;;;;;;8.82;4.32;;;23.80;65.20;;;;;;5215078;28;20182;-66
2023/05/21 06:46:54;;;;;;;5.72;4.43;;;23.50;72.20;;;;;;5212172;28;20254;-65
2023/05/21 06:49:28;;;;;;;6.15;4.55;;;23.50;85.00;;;;;;5230806;28;20028;-67
2023/05/21 06:52:00;;;;;;;20.38;4.20;;;23.60;85.80;;;;;;5229985;28;20193;-68
2023/05/21 06:54:37;;;;;;;4.82;4.10;;;23.70;91.70;;;;;;5216193;28;20055;-69
2023/05/21 06:57:08;;;;;;;6.57;4.75;;;23.70;94.40;;;;;;5213979;28;20232;-67
2023/05/21 06:59:39;;;;;;;5.60;4.32;;;23.70;76.40;;;;;;5230093;28;20024;-66
2023/05/21 07:02:15;;;;;;;7.05;4.20;;;23.80;81.10;;;;;;5238598;28;20038;-66
2023/05/21 07:04:49;;;;;;;6.15;4.57;;;24.00;79.70;;;;;;5243792;28;20048;-67
2023/05/21 07:07:23;;;;;;;6.10;4.63;;;23.90;79.00;;;;;;5246513;28;20027;-67
2023/05/21 07:09:57;;;;;;;5.15;4.32;;;23.80;89.20;;;;;;5250908;28;20260;-67
2023/05/21 07:12:34;;;;;;;;;;;23.90;82.10;;;;;;5231925;28;20209;-67
2023/05/21 07:15:06;;;;;;;4.63;3.72;;;24.00;80.80;;;;;;5231991;28;19901;-68
2023/05/21 07:17:37;;;;;;;5.10;3.60;;;24.40;81.50;;;;;;5233597;28;20349;-65
2023/05/21 07:20:10;;;;;;;5.53;3.97;;;24.20;84.40;;;;;;5216855;28;20035;-66
2023/05/21 07:22:44;;;;;;;6.20;4.78;;;23.90;91.10;;;;;;5214822;28;20322;-66
2023/05/21 07:25:18;;;;;;;4.80;4.28;;;24.00;93.70;;;;;;5206153;28;20220;-68
2023/05/21 07:27:49;;;;;;;;;;;23.80;93.40;;;;;;5215138;28;20028;-67
2023/05/21 07:30:21;;;;;;;5.25;3.65;;;24.00;91.80;;;;;;5212973;28;19909;-68
2023/05/21 07:32:52;;;;;;;6.30;3.90;;;23.90;90.20;;;;;;5250871;28;20028;-67
2023/05/21 07:35:24;;;;;;;5.47;4.00;;;24.40;91.30;;;;;;5236742;28;20054;-67
2023/05/21 07:37:55;;;;;;;5.28;3.92;;;24.50;88.70;;;;;;5234721;28;20035;-66
2023/05/21 07:40:28;;;;;;;6.53;4.22;;;24.30;85.30;;;;;;5248347;28;20404;-68
2023/05/21 07:43:00;;;;;;;5.10;4.00;;;24.50;89.30;;;;;;5235235;28;20028;-66
2023/05/21 07:45:31;;;;;;;5.10;3.78;;;24.60;96.20;;;;;;5232539;28;20024;-67
2023/05/21 07:48:05;;;;;;;5.95;4.35;;;24.90;97.50;;;;;;5229528;28;20179;-66
2023/05/21 07:50:39;;;;;;;13.98;4.15;;;25.00;98.40;;;;;;5233626;28;20032;-65
2023/05/21 07:53:10;;;;;;;6.82;4.60;;;25.20;97.80;;;;;;5231457;28;20031;-65
2023/05/21 07:55:46;;;;;;;6.18;5.10;;;25.30;97.60;;;;;;5228347;28;20031;-66
2023/05/21 07:58:20;;;;;;;3.97;3.60;;;24.90;97.20;;;;;;5214815;28;20386;-70
2023/05/21 08:00:52;;;;;;;5.18;4.10;;;24.50;99.10;;;;;;5212550;28;20028;-65
2023/05/21 08:03:25;;;;;;;5.57;4.38;;;24.80;99.90;;;;;;5252415;28;20062;-67
2023/05/21 08:05:56;;;;;;;7.25;4.05;;;25.10;97.60;;;;;;5207118;28;20047;-67
2023/05/21 08:08:30;;;;;;;5.55;4.10;;;25.00;98.80;;;;;;5218726;28;20208;-67
2023/05/21 08:11:05;;;;;;;6.72;4.55;;;25.20;99.70;;;;;;5211340;28;20034;-68
2023/05/21 08:13:37;;;;;;;5.90;4.68;;;25.30;98.40;;;;;;5215199;28;20322;-68
2023/05/21 08:16:11;;;;;;;6.00;4.00;;;25.10;98.10;;;;;;5228336;28;20393;-69
2023/05/21 08:18:42;;;;;;;5.77;4.30;;;25.30;97.80;;;;;;5200859;28;20094;-68
2023/05/21 08:21:13;;;;;;;6.47;4.63;;;25.50;97.20;;;;;;5234882;28;20255;-66
2023/05/21 08:23:53;;;;;;;6.28;4.47;;;25.20;98.10;;;;;;5216683;28;20046;-65
2023/05/21 08:26:25;;;;;;;6.10;4.35;;;25.20;93.30;;;;;;5234702;28;20020;-64
2023/05/21 08:28:56;;;;;;;6.07;4.80;;;25.30;95.90;;;;;;5246968;28;20056;-67
2023/05/21 08:31:33;;;;;;;9.23;4.43;;;25.40;95.40;;;;;;5253373;28;20023;-67
2023/05/21 08:34:07;;;;;;;5.63;4.15;;;25.50;95.00;;;;;;5245665;28;20036;-68
2023/05/21 08:36:45;;;;;;;5.57;4.32;;;25.60;94.50;;;;;;5240749;28;20136;-67
2023/05/21 08:39:16;;;;;;;5.43;3.80;;;25.30;97.30;;;;;;5216202;28;20024;-67
2023/05/21 08:41:54;;;;;;;6.78;4.38;;;25.80;96.40;;;;;;5235748;28;20350;-68
2023/05/21 08:44:32;;;;;;;4.47;3.58;;;25.50;96.40;;;;;;5237722;28;20048;-68
2023/05/21 08:47:09;;;;;;;4.80;3.50;;;25.80;94.50;;;;;;5256449;28;20027;-67
2023/05/21 08:49:44;;;;;;;4.95;3.90;;;26.00;96.50;;;;;;5238022;28;20058;-67
2023/05/21 08:52:16;;;;;;;5.15;3.85;;;26.20;96.30;;;;;;5238349;28;20027;-66
2023/05/21 08:54:51;;;;;;;4.68;3.72;;;26.30;99.90;;;;;;5202347;28;20043;-67
2023/05/21 08:57:31;;;;;;;4.60;3.78;;;26.10;95.40;;;;;;5209862;28;20033;-67
2023/05/21 09:00:06;;;;;;;6.85;3.97;;;25.80;96.30;;;;;;5179607;28;20047;-67
2023/05/21 09:02:42;;;;;;;5.93;4.20;;;25.90;97.60;;;;;;5234854;28;20024;-66
2023/05/21 09:05:14;;;;;;;4.80;3.47;;;25.90;97.10;;;;;;5216192;28;20060;-67
2023/05/21 09:08:05;;;;;;;5.32;4.10;;;25.90;89.40;;;;;;5217623;28;20036;-67
2023/05/21 09:10:45;;;;;;;4.88;3.72;;;25.80;67.00;;;;;;5217069;28;20036;-67
2023/05/21 09:13:18;;;;;;;5.55;4.22;;;26.10;81.80;;;;;;5206637;28;20347;-66
2023/05/21 09:15:50;;;;;;;4.63;3.80;;;26.30;83.50;;;;;;5227444;28;20041;-68
2023/05/21 09:18:21;;;;;;;4.68;4.10;;;26.20;83.30;;;;;;5215312;28;20062;-67
2023/05/21 09:20:55;;;;;;;4.00;3.60;;;26.80;92.40;;;;;;5235166;28;20032;-65
2023/05/21 09:23:27;;;;;;;5.90;4.10;;;26.90;94.60;;;;;;5218079;28;20032;-66
2023/05/21 09:26:09;;;;;;;3.38;3.05;;;27.40;92.00;;;;;;5232904;28;20029;-69
2023/05/21 09:28:40;;;;;;;4.88;3.78;;;27.10;99.90;;;;;;5240893;28;20032;-67
2023/05/21 09:31:12;;;;;;;3.80;3.10;;;26.50;99.90;;;;;;5232831;28;20046;-67
2023/05/21 09:33:48;;;;;;;5.95;4.47;;;26.90;99.90;;;;;;5216894;28;20463;-67
2023/05/21 09:36:23;;;;;;;4.10;3.42;;;27.60;99.90;;;;;;5198388;28;20040;-67
2023/05/21 09:38:57;;;;;;;6.00;4.05;;;28.00;99.90;;;;;;5231617;28;20044;-67
2023/05/21 09:41:33;;;;;;;4.60;3.58;;;28.10;80.00;;;;;;5238773;28;20488;-66
2023/05/21 09:44:06;;;;;;;5.57;3.15;;;27.90;82.90;;;;;;5238763;28;20034;-67
2023/05/21 09:46:40;;;;;;;5.30;3.70;;;28.40;99.90;;;;;;5237675;28;20038;-68
2023/05/21 09:49:30;;;;;;;3.85;3.22;;;28.40;99.90;;;;;;5258479;28;20034;-69
2023/05/21 09:52:04;;;;;;;6.65;3.92;;;28.40;99.90;;;;;;5258095;28;20031;-67
2023/05/21 09:54:38;;;;;;;;;;;28.90;99.90;;;;;;5242557;28;20021;-67
2023/05/21 09:57:15;;;;;;;6.53;3.95;;;29.30;99.90;;;;;;5234426;28;19912;-70
2023/05/21 09:59:52;;;;;;;4.68;3.35;;;29.40;99.90;;;;;;5211312;28;20040;-68
2023/05/21 10:02:31;;;;;;;4.55;3.47;;;29.40;99.90;;;;;;5201607;28;20048;-66
2023/05/21 10:05:10;;;;;;;5.28;3.47;;;29.20;99.90;;;;;;5232270;28;20044;-67
2023/05/21 10:07:49;;;;;;;4.47;3.38;;;28.80;99.90;;;;;;5243423;28;20190;-68
2023/05/21 10:10:24;;;;;;;4.30;3.22;;;28.90;99.90;;;;;;5230313;28;20039;-67
2023/05/21 10:13:08;;;;;;;4.57;3.33;;;29.10;99.90;;;;;;5235177;28;20039;-67
2023/05/21 10:15:46;;;;;;;3.53;3.10;;;28.80;99.90;;;;;;5248210;28;20633;-68
2023/05/21 10:18:20;;;;;;;5.10;3.72;;;29.20;99.90;;;;;;5218271;28;20032;-67
2023/05/21 10:20:52;;;;;;;3.60;3.30;;;29.90;30.60;;;;;;5217523;28;20032;-67
2023/05/21 10:23:28;;;;;;;3.95;2.78;;;28.90;1.00;;;;;;5200652;28;20047;-66
2023/05/21 10:26:03;;;;;;;3.85;2.78;;;29.30;1.00;;;;;;5217241;28;20039;-69
2023/05/21 10:28:38;;;;;;;3.45;3.10;;;29.60;1.00;;;;;;5216614;28;20040;-70
2023/05/21 10:31:12;;;;;;;4.47;3.38;;;30.60;1.00;;;;;;5254979;28;20507;-67
2023/05/21 10:33:46;;;;;;;5.40;3.22;;;30.90;1.00;;;;;;5209756;28;20020;-67
2023/05/21 10:36:20;;;;;;;5.80;2.63;;;31.70;1.00;;;;;;5239611;28;20203;-66
2023/05/21 10:38:55;;;;;;;3.53;3.10;;;32.00;1.00;;;;;;5255980;28;20218;-68
2023/05/21 10:41:41;;;;;;;3.42;2.53;;;32.60;1.00;;;;;;5236842;28;20554;-67
2023/05/21 10:44:41;;;;;;;4.18;2.92;;;32.20;1.00;;;;;;5238371;28;20032;-65
2023/05/21 10:47:54;;;;;;;3.83;3.03;;;32.70;1.00;;;;;;5250328;28;20040;-68
2023/05/21 10:50:47;;;;;;;4.38;3.35;;;32.20;1.00;;;;;;5179153;28;20041;-67
2023/05/21 10:53:31;;;;;;;3.78;3.08;;;31.90;1.00;;;;;;5231407;28;20020;-68
2023/05/21 10:56:42;;;;;;;3.58;2.88;;;32.10;1.00;;;;;;5234085;28;20324;-67
2023/05/21 10:59:20;;;;;;;3.22;2.92;;;32.10;1.00;;;;;;5148956;28;20022;-67
2023/05/21 11:01:55;;;;;;;3.35;2.80;;;32.80;1.00;;;;;;5189693;28;20046;-67
2023/05/21 11:04:28;;;;;;;3.53;2.88;;;31.70;1.00;;;;;;5245420;28;20031;-68
2023/05/21 11:07:01;;;;;;;4.00;3.00;;;32.70;1.00;;;;;;5217214;28;20039;-67
2023/05/21 11:09:32;;;;;;;3.45;2.70;;;32.30;1.00;;;;;;5252065;28;20329;-69
2023/05/21 11:12:08;;;;;;;3.55;2.90;;;32.80;1.00;;;;;;5238005;28;20389;-67
2023/05/21 11:14:56;;;;;;;3.00;2.47;;;33.30;1.00;;;;;;5227181;28;20040;-67
2023/05/21 11:17:46;;;;;;;4.22;3.60;;;33.70;1.00;;;;;;5201152;28;20028;-70
2023/05/21 11:20:22;;;;;;;4.63;2.97;;;34.50;1.00;;;;;;5215226;28;20051;-68
2023/05/21 11:22:57;;;;;;;3.42;3.10;;;34.30;1.00;;;;;;5199210;28;20051;-67
2023/05/21 11:25:30;;;;;;;;;;;34.50;1.00;;;;;;5214209;28;20036;-67
2023/05/21 11:28:05;;;;;;;3.25;2.67;;;34.10;1.00;;;;;;5226007;28;19904;-65
2023/05/21 11:30:39;;;;;;;3.97;3.30;;;34.40;1.00;;;;;;5214363;28;20041;-65
2023/05/21 11:33:14;;;;;;;;;;;33.90;1.00;;;;;;5235366;28;20036;-68
2023/05/21 11:35:59;;;;;;;3.03;2.58;;;34.60;1.00;;;;;;5233609;28;19900;-70
2023/05/21 11:38:32;;;;;;;2.88;2.65;;;35.00;1.00;;;;;;5213991;28;20028;-67
2023/05/21 11:41:04;;;;;;;3.83;2.85;;;35.00;1.00;;;;;;5213795;28;20032;-67
2023/05/21 11:43:39;;;;;;;4.43;2.58;;;34.50;1.00;;;;;;5196612;28;20573;-69
2023/05/21 11:46:14;;;;;;;3.92;2.75;;;35.30;1.00;;;;;;5220692;28;20024;-68
2023/05/21 11:48:49;;;;;;;3.08;2.65;;;35.50;1.00;;;;;;5235362;28;20043;-69
2023/05/21 11:51:29;;;;;;;3.08;2.78;;;35.40;1.00;;;;;;5243385;28;20278;-67
2023/05/21 11:54:02;;;;;;;3.53;2.95;;;35.10;1.00;;;;;;5203525;28;20051;-67
2023/05/21 11:56:40;;;;;;;3.78;2.45;;;35.90;1.00;;;;;;5236954;28;20028;-69
2023/05/21 11:59:15;;;;;;;4.13;3.08;;;36.00;1.00;;;;;;5203854;28;20043;-70
2023/05/21 12:01:49;;;;;;;3.30;2.88;;;34.60;1.00;;;;;;5205562;28;20438;-72
2023/05/21 12:04:23;;;;;;;;;;;34.60;1.00;;;;;;5207945;28;20036;-68
2023/05/21 12:06:59;;;;;;;3.97;2.55;;;35.20;1.00;;;;;;5227298;28;19912;-66
2023/05/21 12:09:37;;;;;;;4.90;2.85;;;36.40;1.00;;;;;;5248261;28;20216;-67
2023/05/21 12:12:17;;;;;;;2.88;2.63;;;35.40;1.00;;;;;;5206540;28;20033;-67
2023/05/21 12:14:49;;;;;;;4.18;2.63;;;34.80;1.00;;;;;;5201664;28;20059;-69
2023/05/21 12:17:27;;;;;;;4.00;3.10;;;35.00;1.00;;;;;;5218911;28;20028;-66
2023/05/21 12:20:06;;;;;;;4.47;2.95;;;35.80;1.00;;;;;;5238743;28;20038;-67
2023/05/21 12:22:43;;;;;;;3.35;2.92;;;35.60;1.00;;;;;;5237659;28;20024;-68
2023/05/21 12:25:20;;;;;;;3.63;2.88;;;36.00;1.00;;;;;;5234376;28;20649;-66
2023/05/21 12:27:56;;;;;;;3.42;2.80;;;34.50;1.00;;;;;;5214157;28;20045;-67
2023/05/21 12:30:33;;;;;;;3.33;2.75;;;35.30;1.00;;;;;;5219629;28;20051;-69
2023/05/21 12:33:04;;;;;;;2.38;2.17;;;36.20;1.00;;;;;;5224043;28;20216;-68
2023/05/21 12:35:39;;;;;;;4.22;3.30;;;35.90;1.00;;;;;;5257164;28;20026;-68
2023/05/21 12:38:16;;;;;;;2.80;2.53;;;36.10;1.00;;;;;;5240535;28;20032;-69
2023/05/21 12:40:47;;;;;;;5.68;3.05;;;35.70;1.00;;;;;;5240529;28;20114;-65
2023/05/21 12:43:24;;;;;;;3.22;2.90;;;35.70;1.00;;;;;;5219051;28;20036;-68
2023/05/21 12:45:55;;;;;;;2.80;2.58;;;35.70;1.00;;;;;;5249108;28;20032;-68
2023/05/21 12:48:30;;;;;;;4.50;2.83;;;36.90;1.00;;;;;;5231746;28;20027;-70
2023/05/21 12:51:01;;;;;;;3.60;2.90;;;37.80;1.00;;;;;;5238521;28;20047;-67
2023/05/21 12:53:39;;;;;;;3.15;2.85;;;35.40;99.90;;;;;;5234615;28;20050;-67
2023/05/21 12:56:11;;;;;;;4.25;3.00;;;33.30;99.90;;;;;;5216827;28;20102;-66
2023/05/21 12:58:50;;;;;;;2.70;2.45;;;32.70;1.00;;;;;;5210593;28;20037;-66
2023/05/21 13:01:22;;;;;;;3.72;2.55;;;33.80;1.00;;;;;;5222384;28;20492;-66
2023/05/21 13:03:55;;;;;;;5.13;3.72;;;35.60;1.00;;;;;;5222765;28;20496;-67
2023/05/21 13:06:28;;;;;;;3.83;2.78;;;36.90;1.00;;;;;;5182787;28;20048;-66
2023/05/21 13:09:00;;;;;;;3.33;2.60;;;36.30;99.90;;;;;;5182036;28;20367;-67
2023/05/21 13:11:34;;;;;;;3.28;2.97;;;35.80;99.90;;;;;;5192610;28;20040;-66
2023/05/21 13:14:05;;;;;;;3.92;2.83;;;35.60;99.90;;;;;;5219833;28;20032;-68
2023/05/21 13:16:37;;;;;;;3.15;2.85;;;35.30;99.90;;;;;;5235548;28;20038;-65
2023/05/21 13:19:10;;;;;;;3.25;2.67;;;35.40;99.90;;;;;;5221968;28;20028;-68
2023/05/21 13:21:41;;;;;;;6.65;2.35;;;35.20;99.90;;;;;;5232925;28;20025;-66
2023/05/21 13:24:18;;;;;;;2.67;2.38;;;35.50;99.90;;;;;;5236055;28;20047;-66
2023/05/21 13:26:55;;;;;;;3.97;3.22;;;35.30;99.90;;;;;;5217840;28;20036;-67
2023/05/21 13:29:27;;;;;;;4.57;2.60;;;34.40;99.90;;;;;;5236844;28;20524;-68
2023/05/21 13:32:01;;;;;;;2.90;2.58;;;34.70;99.90;;;;;;5244390;28;20032;-67